Flight Track Log - Related Links

Times and Time Zones

All times are in EST time to prevent confusion due to time zone crossing. See the N404EW flight status page for this flight to view local times or setup timezone preferences in your user account.

Time Position Orientation Groundspeed Altitude Reporting Facility
EST Latitude Longitude Course Direction KTS MPH feet Rate Location/Type
Sat 03:55:58 PM 36.0714 -115.1669 201° Southwest 164 189 3,000  Level Los Angeles Center
Sat 03:56:47 PM 36.0344 -115.1847 201° Southwest 166 191 4,600 2,031 Climbing Los Angeles Center
Sat 03:57:03 PM 36.0225 -115.1900 200° South 168 193 5,200 2,328 Climbing Los Angeles Center
Sat 03:57:54 PM 35.9850 -115.2061 199° South 169 194 7,200 2,323 Climbing Los Angeles Center
Sat 03:58:05 PM 35.9775 -115.2089 197° South 171 197 7,600 1,973 Climbing Los Angeles Center
Sat 03:59:07 PM 35.9372 -115.1822 152° Southeast 205 236 9,600 2,032 Climbing Los Angeles Center
Sat 04:00:09 PM 35.9378 -115.1033 89° East 215 247 11,800 1,887 Climbing Los Angeles Center
Sat 04:01:11 PM 35.9272 -115.0253 99° East 232 267 13,500 1,500 Climbing Los Angeles Center
Sat 04:02:13 PM 35.9108 -114.9319 102° East 258 297 14,900 726 Climbing Los Angeles Center
Sat 04:03:15 PM 35.8875 -114.8239 105° East 308 354 15,000 48 Climbing Los Angeles Center
Sat 04:04:17 PM 35.8597 -114.7164 108° East 325 374 15,000  Level Los Angeles Center
Sat 04:05:19 PM 35.8022 -114.6353 131° Southeast 315 362 15,000 576 Level Los Angeles Center
Sat 04:06:22 PM 35.7292 -114.5825 150° Southeast 303 349 16,200 1,584 Climbing Los Angeles Center
Sat 04:07:24 PM 35.6661 -114.5286 145° Southeast 279 321 18,300 1,588 Climbing Los Angeles Center
Sat 04:08:38 PM 35.6086 -114.4750 143° Southeast 262 302 19,800 1,456 Climbing Los Angeles Center
Sat 04:09:40 PM 35.5381 -114.3747 131° Southeast 277 319 21,600 1,452 Climbing Los Angeles Center
Sat 04:10:42 PM 35.4906 -114.2972 127° Southeast 282 325 22,800 677 Climbing Los Angeles Center
Sat 04:11:44 PM 35.4414 -114.2150 126° Southeast 296 341 23,000 96 Climbing Los Angeles Center
Sat 04:12:47 PM 35.4042 -114.1103 114° Southeast 330 380 23,000  Level Los Angeles Center
Sat 04:13:49 PM 35.3608 -114.0069 117° Southeast 338 389 23,000  Level Los Angeles Center
Sat 04:14:51 PM 35.3150 -113.9003 118° Southeast 348 400 23,000  Level Los Angeles Center
Sat 04:15:53 PM 35.2706 -113.7933 117° Southeast 355 409 23,000  Level Los Angeles Center
Sat 04:16:55 PM 35.2175 -113.6692 118° Southeast 348 400 23,000  Level Los Angeles Center
Sat 04:17:57 PM 35.1725 -113.5642 118° Southeast 349 402 23,000  Level Los Angeles Center
Sat 04:18:59 PM 35.1292 -113.4600 117° Southeast 350 403 23,000  Level Los Angeles Center
Sat 04:20:01 PM 35.0847 -113.3556 117° Southeast 349 402 23,000  Level Los Angeles Center
Sat 04:20:47 PM 35.0478 -113.2725 118° Southeast 352 405 23,000  Level Albuquerque Center
Sat 04:21:49 PM 34.9886 -113.1814 128° Southeast 349 402 23,000  Level Albuquerque Center
Sat 04:22:51 PM 34.9172 -113.0689 128° Southeast 354 407 23,000 -293 Level Albuquerque Center
Sat 04:23:52 PM 34.8606 -112.9758 127° Southeast 349 402 22,400 -732 Descending Albuquerque Center
Sat 04:24:54 PM 34.8028 -112.8811 127° Southeast 350 403 21,500 -829 Descending Albuquerque Center
Sat 04:25:55 PM 34.7422 -112.7844 127° Southeast 359 413 20,700 -878 Descending Albuquerque Center
Sat 04:26:57 PM 34.6819 -112.6875 127° Southeast 362 417 19,700 -1,024 Descending Albuquerque Center
Sat 04:27:58 PM 34.6206 -112.5889 127° Southeast 366 421 18,600 -1,171 Descending Albuquerque Center
Sat 04:29:00 PM 34.5469 -112.4722 127° Southeast 366 421 17,300 -1,122 Descending Albuquerque Center
Sat 04:30:01 PM 34.4858 -112.3756 127° Southeast 364 419 16,300 -1,171 Descending Albuquerque Center
Sat 04:31:03 PM 34.4303 -112.2886 128° Southeast 353 406 14,900 -1,366 Descending Albuquerque Center
Sat 04:32:04 PM 34.3736 -112.1975 127° Southeast 344 396 13,500 -1,268 Descending Albuquerque Center
Sat 04:33:06 PM 34.3178 -112.1094 127° Southeast 335 386 12,300 -1,161 Descending Albuquerque Center
Sat 04:34:08 PM 34.2661 -112.0278 127° Southeast 316 364 11,100 -634 Descending Albuquerque Center
Sat 04:35:09 PM 34.2072 -111.9386 129° Southeast 290 334 11,000 -146 Descending Albuquerque Center
Sat 04:36:11 PM 34.1394 -111.9092 160° South 265 305 10,800 -537 Descending Albuquerque Center
Sat 04:37:12 PM 34.0694 -111.9242 190° South 259 298 9,900 -780 Descending Albuquerque Center
Sat 04:38:14 PM 34.0047 -111.9336 187° South 240 276 9,200 -634 Descending Albuquerque Center
Sat 04:39:15 PM 33.9425 -111.9389 184° South 228 262 8,600 -878 Descending Albuquerque Center
Sat 04:40:17 PM 33.8731 -111.9431 183° South 213 245 7,400 -1,210 Descending Albuquerque Center
Sat 04:41:19 PM 33.8119 -111.9411 178° South 221 254 6,100 -878 Descending Albuquerque Center
Sat 04:42:20 PM 33.7481 -111.9244 168° South 235 270 5,600 -984 Descending Albuquerque Center
Sat 04:43:21 PM 33.6889 -111.8994 161° South 226 260 4,100 -1,610 Descending Albuquerque Center
Sat 04:44:23 PM 33.6506 -111.8819 159° South 171 197 2,300 -1,268 Descending Albuquerque Center
Sat 04:45:24 PM 33.6267 -111.9067 221° Southwest 135 155 1,500 -787 Descending Albuquerque Center

Login

Don't have an account? Register now (free) for customized features, flight alerts, and more!